Time;durP1;ratioP1;P1;durP2;ratioP2;P2;SDS_P1;SDS_P2;PMS_P1;PMS_P2;Temp;Humidity;BMP_temperature;BMP_pressure;BME280_temperature;BME280_humidity;BME280_pressure;Samples;Min_cycle;Max_cycle;Signal;HPM_P1;HPM_P2
2022/07/18 06:51:15;;;;;;;3.03;1.40;;;18.20;76.90;;;;;;5131704;27;20450;-73
2022/07/18 06:53:41;;;;;;;3.42;1.30;;;17.60;75.70;;;;;;5133285;27;20485;-72
2022/07/18 06:56:06;;;;;;;2.67;1.20;;;17.70;74.70;;;;;;5132860;27;20028;-74
2022/07/18 06:58:33;;;;;;;2.03;1.30;;;17.90;75.00;;;;;;5132922;27;20394;-74
2022/07/18 07:00:59;;;;;;;4.82;1.45;;;18.10;74.70;;;;;;5132943;27;20526;-74
2022/07/18 07:03:25;;;;;;;1.85;1.20;;;18.30;74.40;;;;;;5132952;27;20114;-74
2022/07/18 07:05:50;;;;;;;2.85;1.50;;;18.50;73.60;;;;;;5132410;27;20413;-74
2022/07/18 07:08:16;;;;;;;2.40;1.38;;;18.70;74.20;;;;;;5132571;27;20118;-73
2022/07/18 07:10:42;;;;;;;4.95;1.45;;;18.90;73.00;;;;;;5132311;27;20040;-73
2022/07/18 07:13:08;;;;;;;4.82;1.60;;;19.00;71.90;;;;;;5132033;27;20062;-73
2022/07/18 07:15:33;;;;;;;3.22;1.38;;;19.20;70.20;;;;;;5132057;27;20027;-73
2022/07/18 07:18:02;;;;;;;2.72;1.38;;;19.40;71.30;;;;;;5132599;27;20062;-73
2022/07/18 07:20:27;;;;;;;3.60;1.20;;;19.60;71.50;;;;;;5132374;27;20729;-73
2022/07/18 07:22:55;;;;;;;3.13;1.25;;;19.80;69.70;;;;;;5131902;27;20107;-73
2022/07/18 07:25:23;;;;;;;4.10;1.40;;;20.00;69.30;;;;;;5131032;27;20032;-74
2022/07/18 07:27:48;;;;;;;1.73;1.25;;;20.20;70.00;;;;;;5132013;27;20036;-73
2022/07/18 07:30:15;;;;;;;3.15;1.30;;;20.50;68.70;;;;;;5132193;27;20036;-74
2022/07/18 07:32:42;;;;;;;5.07;1.38;;;20.60;68.50;;;;;;5131616;27;20028;-74
2022/07/18 07:35:13;;;;;;;2.03;1.40;;;20.90;69.00;;;;;;5131665;27;20031;-73
2022/07/18 07:37:43;;;;;;;2.90;1.42;;;21.10;70.10;;;;;;5132313;27;20039;-74
2022/07/18 07:40:09;;;;;;;5.15;1.58;;;21.30;68.90;;;;;;5132077;27;20035;-73
2022/07/18 07:42:35;;;;;;;4.18;1.35;;;21.60;67.70;;;;;;5132077;27;20496;-75
2022/07/18 07:45:00;;;;;;;4.28;1.30;;;21.90;68.90;;;;;;5131777;27;20059;-71
2022/07/18 07:47:28;;;;;;;4.38;1.52;;;22.20;65.70;;;;;;5131860;27;20401;-71
2022/07/18 07:49:54;;;;;;;4.22;1.42;;;22.30;65.60;;;;;;5131484;27;20044;-71
2022/07/18 07:52:20;;;;;;;2.30;1.50;;;22.60;66.70;;;;;;5131898;27;20024;-71
2022/07/18 07:54:46;;;;;;;2.70;1.38;;;22.80;66.00;;;;;;5131657;27;20111;-75
2022/07/18 07:57:12;;;;;;;2.88;1.40;;;23.00;65.40;;;;;;5131837;27;20032;-71
2022/07/18 07:59:37;;;;;;;3.75;1.48;;;23.40;65.70;;;;;;5131478;27;20028;-72
2022/07/18 08:02:03;;;;;;;1.65;1.25;;;23.70;65.30;;;;;;5121170;27;20138;-71
2022/07/18 08:04:29;;;;;;;5.03;1.50;;;23.80;63.30;;;;;;5117374;27;20059;-71
2022/07/18 08:06:54;;;;;;;5.68;1.50;;;24.00;61.30;;;;;;5117814;27;20039;-72
2022/07/18 08:09:20;;;;;;;6.40;1.55;;;24.20;60.00;;;;;;5116142;27;20452;-72
2022/07/18 08:11:46;;;;;;;3.03;1.30;;;24.30;60.20;;;;;;5117892;27;20024;-71
2022/07/18 08:14:11;;;;;;;2.30;1.27;;;24.60;58.80;;;;;;5117438;27;20051;-71
2022/07/18 08:16:37;;;;;;;4.40;1.42;;;24.80;56.60;;;;;;5117664;27;20075;-71
2022/07/18 08:19:03;;;;;;;2.22;1.13;;;25.10;55.60;;;;;;5117857;27;20374;-71
2022/07/18 08:21:28;;;;;;;3.45;1.63;;;25.30;52.70;;;;;;5117548;27;20420;-71
2022/07/18 08:23:54;;;;;;;5.03;1.45;;;25.40;52.30;;;;;;5117676;27;20389;-71
2022/07/18 08:26:19;;;;;;;3.20;1.30;;;25.60;52.80;;;;;;5117042;27;20091;-71
2022/07/18 08:28:45;;;;;;;3.63;1.13;;;26.00;53.70;;;;;;5117095;27;20074;-71
2022/07/18 08:31:11;;;;;;;1.58;1.13;;;26.20;52.90;;;;;;5116678;27;20478;-72
2022/07/18 08:33:36;;;;;;;2.10;1.10;;;26.50;51.60;;;;;;5117275;27;20044;-71
2022/07/18 08:36:02;;;;;;;2.35;1.20;;;26.60;51.10;;;;;;5117078;27;20047;-71
2022/07/18 08:38:27;;;;;;;2.78;1.25;;;26.80;50.00;;;;;;5117546;28;20119;-71
2022/07/18 08:40:54;;;;;;;1.88;1.20;;;26.70;53.40;;;;;;5117217;27;20030;-74
2022/07/18 08:43:20;;;;;;;2.25;1.13;;;26.70;53.10;;;;;;5117270;27;20043;-77
2022/07/18 08:45:46;;;;;;;2.58;1.27;;;26.80;51.80;;;;;;5116729;27;20081;-71
2022/07/18 08:48:16;;;;;;;2.28;1.40;;;27.10;52.40;;;;;;5116517;27;20044;-71
2022/07/18 08:50:47;;;;;;;3.13;1.23;;;27.20;49.50;;;;;;5116220;27;20138;-72
2022/07/18 08:53:14;;;;;;;1.90;1.20;;;27.30;51.20;;;;;;5116666;27;20055;-72
2022/07/18 08:55:40;;;;;;;2.80;1.20;;;27.40;51.60;;;;;;5116230;27;20044;-72
2022/07/18 08:58:05;;;;;;;2.53;1.23;;;27.60;50.70;;;;;;5116279;27;20028;-72
2022/07/18 09:00:33;;;;;;;2.70;1.40;;;27.90;51.60;;;;;;5116554;27;20028;-72
2022/07/18 09:03:01;;;;;;;4.05;1.50;;;28.10;51.10;;;;;;5116292;27;20032;-72
2022/07/18 09:05:27;;;;;;;3.67;1.42;;;28.40;50.20;;;;;;5116306;28;20055;-72
2022/07/18 09:08:10;;;;;;;4.35;1.30;;;28.60;49.70;;;;;;5116500;27;20028;-72
2022/07/18 09:10:49;;;;;;;3.17;1.10;;;28.90;49.80;;;;;;5115014;28;20136;-72
2022/07/18 09:13:16;;;;;;;3.20;1.25;;;29.20;49.40;;;;;;5114323;27;20473;-72
2022/07/18 09:16:00;;;;;;;3.40;1.40;;;29.50;47.80;;;;;;5126073;27;20032;-72
2022/07/18 09:18:37;;;;;;;5.43;1.40;;;29.70;48.90;;;;;;5137112;27;20038;-72
2022/07/18 09:21:08;;;;;;;2.83;1.20;;;29.70;47.00;;;;;;5137333;27;20035;-72
2022/07/18 09:23:40;;;;;;;7.82;1.45;;;29.80;48.30;;;;;;5137507;27;20481;-73
2022/07/18 09:26:07;;;;;;;4.13;1.33;;;30.00;47.30;;;;;;5136698;27;20036;-73
2022/07/18 09:28:47;;;;;;;3.92;1.25;;;30.10;45.20;;;;;;5137399;27;20039;-72
2022/07/18 09:31:25;;;;;;;4.50;1.20;;;30.30;45.80;;;;;;5116978;27;20028;-73
2022/07/18 09:34:01;;;;;;;2.47;1.38;;;30.30;45.50;;;;;;5116375;27;20028;-72
2022/07/18 09:36:28;;;;;;;7.75;1.40;;;30.50;47.10;;;;;;5116589;27;20056;-72
2022/07/18 09:38:55;;;;;;;3.85;1.48;;;30.60;45.60;;;;;;5116490;28;20032;-72
2022/07/18 09:41:24;;;;;;;5.07;1.50;;;30.30;46.60;;;;;;5116539;27;20036;-73
2022/07/18 09:43:50;;;;;;;2.17;1.15;;;30.30;45.30;;;;;;5115884;27;20858;-73
2022/07/18 09:46:16;;;;;;;3.95;1.40;;;30.50;43.90;;;;;;5116100;27;20044;-72
2022/07/18 09:48:41;;;;;;;5.30;1.42;;;30.60;43.30;;;;;;5116224;28;20389;-72
2022/07/18 09:51:07;;;;;;;4.05;1.35;;;30.90;42.80;;;;;;5116100;28;20405;-72
2022/07/18 09:53:44;;;;;;;3.15;1.50;;;31.10;42.50;;;;;;5114870;28;20028;-72
2022/07/18 09:56:23;;;;;;;3.17;1.20;;;31.60;42.70;;;;;;5115939;28;20051;-71
2022/07/18 09:58:56;;;;;;;4.22;1.30;;;31.60;42.70;;;;;;5114706;27;20047;-72
2022/07/18 10:01:22;;;;;;;6.57;1.40;;;31.70;42.30;;;;;;5116420;27;20028;-73
2022/07/18 10:03:49;;;;;;;5.50;1.30;;;31.80;41.80;;;;;;5117032;27;20019;-73
2022/07/18 10:06:15;;;;;;;6.43;1.38;;;32.00;41.50;;;;;;5115995;27;20043;-73
2022/07/18 10:08:41;;;;;;;2.65;1.73;;;32.00;41.10;;;;;;5114649;27;20078;-72
2022/07/18 10:11:07;;;;;;;2.25;1.20;;;32.10;41.50;;;;;;5116142;27;20040;-72
2022/07/18 10:13:35;;;;;;;5.70;1.48;;;32.20;39.80;;;;;;5115904;27;20081;-72
2022/07/18 10:16:01;;;;;;;1.95;1.30;;;32.40;40.00;;;;;;5115762;27;20062;-72
2022/07/18 10:18:30;;;;;;;2.40;1.20;;;32.40;39.70;;;;;;5116040;27;20486;-72
2022/07/18 10:21:08;;;;;;;5.00;1.48;;;32.20;40.10;;;;;;5116104;27;20502;-73
2022/07/18 10:23:39;;;;;;;3.75;1.58;;;32.00;39.80;;;;;;5114307;27;20104;-71
2022/07/18 10:26:33;;;;;;;2.38;1.50;;;32.00;39.50;;;;;;5105757;27;20032;-72
2022/07/18 10:29:02;;;;;;;5.75;1.70;;;32.00;41.20;;;;;;5108358;28;20740;-73
2022/07/18 10:31:27;;;;;;;3.63;1.20;;;32.10;40.40;;;;;;5114918;28;20055;-72
2022/07/18 10:34:11;;;;;;;2.92;1.42;;;32.30;41.20;;;;;;5116767;27;20030;-73
2022/07/18 10:36:44;;;;;;;4.13;1.40;;;32.40;39.60;;;;;;5116350;27;20577;-72
2022/07/18 10:39:14;;;;;;;2.58;1.60;;;32.60;39.40;;;;;;5108187;28;20032;-72
2022/07/18 10:41:43;;;;;;;2.55;1.30;;;32.80;40.10;;;;;;5109985;27;20056;-72
2022/07/18 10:44:23;;;;;;;1.98;1.60;;;33.20;40.30;;;;;;5115215;27;20089;-71
2022/07/18 10:47:24;;;;;;;2.20;1.45;;;33.40;39.40;;;;;;5115483;27;20059;-73
2022/07/18 10:49:52;;;;;;;2.38;1.63;;;33.60;38.70;;;;;;5115190;27;20044;-72
2022/07/18 10:52:41;;;;;;;2.47;1.55;;;33.70;40.10;;;;;;5115422;27;20123;-72
2022/07/18 10:55:16;;;;;;;3.17;1.50;;;33.90;40.00;;;;;;5110058;28;20040;-72
2022/07/18 10:57:50;;;;;;;3.05;1.70;;;34.00;41.00;;;;;;5115907;28;20526;-72
2022/07/18 11:00:24;;;;;;;1.30;1.15;;;34.20;39.50;;;;;;5115234;28;20040;-72
2022/07/18 11:03:07;;;;;;;3.30;1.60;;;34.20;37.80;;;;;;5115376;27;20035;-72
2022/07/18 11:05:35;;;;;;;2.65;1.80;;;34.10;39.00;;;;;;5114777;27;20493;-72
2022/07/18 11:08:03;;;;;;;2.58;1.38;;;34.10;39.20;;;;;;5115280;27;20032;-72
2022/07/18 11:10:41;;;;;;;3.83;1.50;;;33.60;39.20;;;;;;5114882;27;20158;-71
2022/07/18 11:13:31;;;;;;;3.65;1.70;;;33.90;40.00;;;;;;5114973;27;20024;-71
2022/07/18 11:16:09;;;;;;;2.63;1.33;;;34.00;40.10;;;;;;5114735;28;20497;-71
2022/07/18 11:18:44;;;;;;;3.85;1.75;;;34.00;39.00;;;;;;5115061;27;20028;-71
2022/07/18 11:21:28;;;;;;;2.67;1.40;;;34.30;39.10;;;;;;5114940;28;20043;-71
2022/07/18 11:24:00;;;;;;;5.40;1.50;;;34.20;38.00;;;;;;5115081;28;20047;-71
2022/07/18 11:26:26;;;;;;;2.65;1.55;;;34.30;37.40;;;;;;5114941;27;20035;-71
2022/07/18 11:29:03;;;;;;;2.47;1.45;;;34.60;39.00;;;;;;5114922;28;20406;-71
2022/07/18 11:31:29;;;;;;;3.15;1.38;;;34.80;37.60;;;;;;5114973;28;20047;-71
2022/07/18 11:33:58;;;;;;;3.38;1.67;;;34.70;38.00;;;;;;5114326;28;20074;-72
2022/07/18 11:36:30;;;;;;;3.28;1.33;;;34.80;38.80;;;;;;5115150;27;20059;-72
2022/07/18 11:38:57;;;;;;;2.70;1.35;;;35.00;37.40;;;;;;5118291;28;20028;-72
2022/07/18 11:41:24;;;;;;;3.25;1.65;;;35.30;37.90;;;;;;5118119;27;20035;-72
2022/07/18 11:43:52;;;;;;;3.38;1.63;;;35.30;37.50;;;;;;5118030;28;20051;-71
2022/07/18 11:46:19;;;;;;;4.25;1.55;;;35.30;37.70;;;;;;5117729;27;20036;-71
2022/07/18 11:48:47;;;;;;;2.22;1.58;;;35.60;37.10;;;;;;5117761;27;20070;-71
2022/07/18 11:51:14;;;;;;;4.35;1.92;;;35.90;36.80;;;;;;5117532;27;20135;-71
2022/07/18 11:53:44;;;;;;;1.65;1.33;;;35.90;36.50;;;;;;5118042;27;20035;-71
2022/07/18 11:56:10;;;;;;;7.45;1.60;;;35.90;35.30;;;;;;5117331;28;20047;-71
2022/07/18 11:58:37;;;;;;;3.05;1.80;;;35.70;35.20;;;;;;5118683;27;20090;-71
2022/07/18 12:01:03;;;;;;;3.50;2.00;;;35.50;36.80;;;;;;5117672;28;20067;-71
2022/07/18 12:03:29;;;;;;;4.65;1.55;;;35.40;36.40;;;;;;5117559;28;20040;-72
2022/07/18 12:05:55;;;;;;;2.28;1.23;;;35.40;37.50;;;;;;5116829;27;20533;-72
2022/07/18 12:08:44;;;;;;;2.17;1.40;;;35.70;37.80;;;;;;5117643;28;20028;-72
2022/07/18 12:11:11;;;;;;;3.00;1.52;;;35.90;37.70;;;;;;5117607;28;20079;-72
2022/07/18 12:13:40;;;;;;;3.05;1.50;;;36.20;37.20;;;;;;5117877;27;20511;-72
2022/07/18 12:16:05;;;;;;;4.88;1.40;;;36.30;38.30;;;;;;5117192;28;20042;-72
2022/07/18 12:18:31;;;;;;;2.67;1.63;;;36.70;35.70;;;;;;5116098;27;20446;-72
2022/07/18 12:21:10;;;;;;;4.63;1.70;;;37.10;36.30;;;;;;5117571;27;20032;-72
2022/07/18 12:23:35;;;;;;;3.33;1.40;;;37.10;36.30;;;;;;5117601;28;20077;-72
2022/07/18 12:26:01;;;;;;;1.52;1.35;;;37.00;36.30;;;;;;5117049;27;20439;-72
2022/07/18 12:28:28;;;;;;;2.78;1.52;;;37.00;36.80;;;;;;5117573;27;20100;-72
2022/07/18 12:30:54;;;;;;;2.10;1.45;;;37.00;35.60;;;;;;5117313;27;20040;-72
2022/07/18 12:33:20;;;;;;;5.72;1.63;;;36.20;34.60;;;;;;5117667;27;20744;-72
2022/07/18 12:35:53;;;;;;;2.25;1.30;;;35.70;36.50;;;;;;5117181;27;20043;-72
2022/07/18 12:38:19;;;;;;;2.00;1.50;;;35.70;38.00;;;;;;5117450;27;20067;-72
2022/07/18 12:40:52;;;;;;;2.22;1.52;;;35.60;36.60;;;;;;5117499;27;20103;-72
2022/07/18 12:43:38;;;;;;;4.22;1.42;;;36.20;35.80;;;;;;5117270;28;20100;-72
2022/07/18 12:46:07;;;;;;;3.08;1.50;;;36.60;36.40;;;;;;5115598;28;20036;-72
2022/07/18 12:48:34;;;;;;;2.63;1.50;;;36.80;34.80;;;;;;5116433;27;20043;-72
2022/07/18 12:51:02;;;;;;;3.58;1.73;;;37.00;35.20;;;;;;5116679;27;20110;-72
2022/07/18 12:53:29;;;;;;;2.60;1.75;;;37.30;34.30;;;;;;5116796;27;20024;-72
2022/07/18 12:55:55;;;;;;;2.63;1.55;;;37.70;34.60;;;;;;5116498;27;20501;-72
2022/07/18 12:58:21;;;;;;;5.15;1.80;;;37.80;35.40;;;;;;5117113;27;20039;-72
2022/07/18 13:00:47;;;;;;;2.85;1.75;;;37.40;35.50;;;;;;5116881;28;20397;-72
2022/07/18 13:03:13;;;;;;;2.60;1.45;;;36.80;35.10;;;;;;5117599;27;20406;-72
2022/07/18 13:05:39;;;;;;;2.65;1.23;;;37.00;36.40;;;;;;5116360;27;20515;-72
2022/07/18 13:08:06;;;;;;;3.25;1.60;;;37.00;37.30;;;;;;5116827;28;20044;-72
2022/07/18 13:10:32;;;;;;;2.92;1.40;;;37.40;35.00;;;;;;5116833;27;20028;-72
2022/07/18 13:12:58;;;;;;;3.20;1.38;;;37.70;36.10;;;;;;5116724;28;20455;-72
2022/07/18 13:15:24;;;;;;;2.17;1.52;;;38.10;35.10;;;;;;5116361;27;20497;-72
2022/07/18 13:17:50;;;;;;;2.88;1.30;;;37.80;35.50;;;;;;5116656;27;20032;-73
2022/07/18 13:20:16;;;;;;;2.45;1.30;;;37.80;36.20;;;;;;5117526;28;20060;-73
2022/07/18 13:22:42;;;;;;;4.53;1.33;;;37.70;34.10;;;;;;5117359;27;20032;-73
2022/07/18 13:25:09;;;;;;;1.92;1.23;;;37.90;37.60;;;;;;5117023;27;20094;-73
2022/07/18 13:27:35;;;;;;;5.47;1.40;;;38.20;33.70;;;;;;5117292;28;20036;-73
2022/07/18 13:30:03;;;;;;;1.65;1.40;;;38.40;34.40;;;;;;5116722;27;20040;-73
2022/07/18 13:32:29;;;;;;;2.10;1.40;;;38.50;36.30;;;;;;5116821;28;20036;-72
2022/07/18 13:34:58;;;;;;;2.72;1.40;;;38.70;38.10;;;;;;5116172;27;20512;-72
2022/07/18 13:37:24;;;;;;;4.93;1.33;;;39.40;32.90;;;;;;5116417;27;20036;-73
2022/07/18 13:39:49;;;;;;;2.42;1.50;;;39.50;32.90;;;;;;5116946;28;20028;-72
2022/07/18 13:42:15;;;;;;;3.38;1.60;;;39.70;33.40;;;;;;5116336;28;20027;-73
2022/07/18 13:44:41;;;;;;;1.80;1.48;;;40.10;36.20;;;;;;5116098;27;20079;-73
2022/07/18 13:47:07;;;;;;;2.72;1.52;;;40.70;31.10;;;;;;5114851;28;20036;-73
2022/07/18 13:49:32;;;;;;;3.45;1.75;;;41.20;30.60;;;;;;5115790;27;20070;-73
2022/07/18 13:51:58;;;;;;;2.90;1.40;;;41.50;31.10;;;;;;5116370;27;20036;-73
2022/07/18 13:54:24;;;;;;;3.00;1.50;;;42.20;29.90;;;;;;5115979;27;20157;-73
2022/07/18 13:56:49;;;;;;;3.75;1.58;;;42.70;30.20;;;;;;5117235;27;20036;-72
2022/07/18 13:59:15;;;;;;;1.70;1.60;;;42.90;31.50;;;;;;5117700;27;20090;-72
2022/07/18 14:01:41;;;;;;;1.70;1.35;;;43.10;28.10;;;;;;5117934;28;20028;-73
2022/07/18 14:04:07;;;;;;;3.08;1.60;;;42.80;28.90;;;;;;5116435;27;20460;-73
2022/07/18 14:06:34;;;;;;;5.35;1.60;;;42.10;30.40;;;;;;5117749;27;20047;-73
2022/07/18 14:09:00;;;;;;;2.05;1.40;;;42.80;28.90;;;;;;5116435;28;20039;-74
2022/07/18 14:11:26;;;;;;;2.35;1.83;;;42.90;28.80;;;;;;5116812;28;20425;-74
2022/07/18 14:13:51;;;;;;;3.28;1.60;;;43.90;27.60;;;;;;5116209;27;20105;-73
2022/07/18 14:16:17;;;;;;;2.33;1.67;;;44.80;28.50;;;;;;5115624;28;20040;-73
2022/07/18 14:18:42;;;;;;;3.67;1.70;;;44.80;28.60;;;;;;5115870;28;20040;-73
2022/07/18 14:21:08;;;;;;;4.53;2.35;;;45.30;28.10;;;;;;5114394;28;20099;-73
2022/07/18 14:23:33;;;;;;;1.83;1.70;;;45.40;28.00;;;;;;5116624;27;20036;-74
2022/07/18 14:25:59;;;;;;;3.10;1.80;;;45.60;28.20;;;;;;5115383;28;20047;-74
2022/07/18 14:28:24;;;;;;;3.55;2.00;;;45.50;28.50;;;;;;5114810;28;20035;-74
2022/07/18 14:30:50;;;;;;;2.17;2.00;;;45.60;27.10;;;;;;5119352;27;20043;-76
2022/07/18 14:33:16;;;;;;;3.55;1.80;;;44.60;26.80;;;;;;5118540;27;20028;-80
2022/07/18 14:35:41;;;;;;;4.22;1.80;;;43.80;29.40;;;;;;5113798;27;20396;-73
2022/07/18 14:38:07;;;;;;;3.50;1.88;;;44.10;29.60;;;;;;5115250;27;20024;-73
2022/07/18 14:40:32;;;;;;;2.20;1.92;;;44.10;28.10;;;;;;5115832;27;20455;-74
2022/07/18 14:42:58;;;;;;;4.57;2.25;;;44.10;27.60;;;;;;5115704;27;20060;-75
2022/07/18 14:45:24;;;;;;;4.25;1.98;;;44.90;27.20;;;;;;5115339;27;20090;-75
2022/07/18 14:47:49;;;;;;;2.92;2.22;;;45.00;27.50;;;;;;5115847;27;20032;-81
2022/07/18 14:50:15;;;;;;;2.55;2.05;;;45.50;26.70;;;;;;5114424;28;20040;-75
2022/07/18 14:52:40;;;;;;;3.42;2.20;;;46.20;26.80;;;;;;5115537;27;20028;-75
2022/07/18 14:55:07;;;;;;;3.20;2.55;;;46.20;26.50;;;;;;5114807;27;20078;-76
2022/07/18 14:57:33;;;;;;;4.30;2.40;;;46.80;27.40;;;;;;5115280;27;20055;-75
2022/07/18 14:59:59;;;;;;;2.97;2.67;;;46.90;25.60;;;;;;5113795;28;20067;-75
2022/07/18 15:02:24;;;;;;;3.22;2.78;;;46.80;27.20;;;;;;5116167;27;20085;-77
2022/07/18 15:04:50;;;;;;;3.90;2.83;;;46.90;27.00;;;;;;5116136;27;20043;-76
2022/07/18 15:07:16;;;;;;;3.67;2.70;;;46.50;26.90;;;;;;5114799;28;20055;-79
2022/07/18 15:09:44;;;;;;;3.97;2.63;;;46.50;25.20;;;;;;5116537;28;20108;-76
2022/07/18 15:12:10;;;;;;;2.70;2.50;;;45.80;27.90;;;;;;5118853;28;20121;-77
2022/07/18 15:14:36;;;;;;;3.72;3.03;;;46.50;25.20;;;;;;5120104;28;20093;-76
2022/07/18 15:17:01;;;;;;;4.50;3.00;;;47.40;26.50;;;;;;5120061;27;20028;-76
2022/07/18 15:19:27;;;;;;;3.63;2.80;;;47.90;25.50;;;;;;5118544;27;20527;-75
2022/07/18 15:21:52;;;;;;;4.43;2.90;;;48.30;26.30;;;;;;5119221;28;20043;-75
2022/07/18 15:24:18;;;;;;;6.20;3.20;;;48.50;25.30;;;;;;5117281;27;20043;-76
2022/07/18 15:26:43;;;;;;;11.00;3.33;;;48.40;26.00;;;;;;5119042;27;20024;-75
2022/07/18 15:29:09;;;;;;;5.45;2.95;;;47.80;24.90;;;;;;5117100;28;20032;-75
2022/07/18 15:31:34;;;;;;;5.40;3.03;;;47.60;25.20;;;;;;5118770;27;20048;-75
2022/07/18 15:34:00;;;;;;;3.08;2.78;;;47.60;26.40;;;;;;5117309;27;20036;-75
2022/07/18 15:36:26;;;;;;;6.75;2.80;;;47.60;25.00;;;;;;5119059;27;20078;-75
2022/07/18 15:38:51;;;;;;;4.18;2.75;;;48.40;26.30;;;;;;5119608;28;20020;-78
2022/07/18 15:41:19;;;;;;;3.97;2.85;;;48.20;27.40;;;;;;5120648;27;20112;-75
2022/07/18 15:43:46;;;;;;;5.28;3.03;;;48.40;24.60;;;;;;5118556;27;20044;-76
2022/07/18 15:46:16;;;;;;;4.93;2.70;;;48.10;24.80;;;;;;5118573;27;20082;-77
2022/07/18 15:48:44;;;;;;;2.50;2.30;;;47.60;25.70;;;;;;5119431;28;20086;-77
2022/07/18 15:51:10;;;;;;;3.05;2.45;;;47.60;26.50;;;;;;5118682;27;20513;-74
2022/07/18 15:53:36;;;;;;;2.60;2.40;;;47.40;26.50;;;;;;5119725;27;20055;-76
2022/07/18 15:56:02;;;;;;;2.38;2.22;;;46.90;26.70;;;;;;5128932;27;20035;-75
2022/07/18 15:58:29;;;;;;;2.78;2.38;;;46.00;25.20;;;;;;5123667;27;20467;-73
2022/07/18 16:00:55;;;;;;;2.33;2.13;;;46.20;25.00;;;;;;5118182;27;20075;-74
2022/07/18 16:03:21;;;;;;;3.42;2.40;;;45.90;27.60;;;;;;5118457;28;20482;-74
2022/07/18 16:05:47;;;;;;;4.00;2.55;;;46.00;25.90;;;;;;5124927;27;20027;-74
2022/07/18 16:08:12;;;;;;;3.33;2.55;;;46.90;25.80;;;;;;5139491;27;20024;-76
2022/07/18 16:10:38;;;;;;;3.03;2.28;;;47.20;27.80;;;;;;5139443;27;20067;-74
2022/07/18 16:13:03;;;;;;;2.78;2.33;;;47.50;27.80;;;;;;5139607;27;20084;-75
2022/07/18 16:15:29;;;;;;;5.43;1.92;;;47.40;26.90;;;;;;5137448;27;20039;-74
2022/07/18 16:17:55;;;;;;;3.30;2.13;;;47.20;25.60;;;;;;5138373;27;20396;-74
2022/07/18 16:20:21;;;;;;;3.45;1.90;;;47.20;26.50;;;;;;5138282;27;20027;-74
2022/07/18 16:22:46;;;;;;;2.33;1.90;;;45.80;25.70;;;;;;5117268;27;20039;-74
2022/07/18 16:25:12;;;;;;;3.28;1.90;;;45.60;25.70;;;;;;5117096;28;20043;-74
2022/07/18 16:27:38;;;;;;;2.90;1.85;;;45.80;26.30;;;;;;5118136;28;20090;-74
2022/07/18 16:30:05;;;;;;;3.92;2.10;;;45.90;26.30;;;;;;5117792;27;20119;-75
2022/07/18 16:32:31;;;;;;;4.68;2.00;;;45.70;25.90;;;;;;5117728;28;20044;-73
2022/07/18 16:34:59;;;;;;;4.05;2.00;;;45.90;26.00;;;;;;5117443;27;20035;-73
2022/07/18 16:37:24;;;;;;;4.18;1.85;;;44.60;26.30;;;;;;5115799;28;20043;-73
2022/07/18 16:39:52;;;;;;;6.13;1.75;;;42.80;27.80;;;;;;5117585;28;20043;-76
2022/07/18 16:42:21;;;;;;;5.38;1.60;;;41.00;29.40;;;;;;5115997;28;20040;-74
2022/07/18 16:44:50;;;;;;;4.25;1.60;;;39.60;33.00;;;;;;5115598;28;20115;-76
2022/07/18 16:47:16;;;;;;;4.43;1.80;;;38.30;29.30;;;;;;5115952;28;20036;-73
2022/07/18 16:49:42;;;;;;;2.13;1.58;;;37.90;36.90;;;;;;5116672;28;20520;-74
2022/07/18 16:52:08;;;;;;;1.65;1.30;;;37.40;30.90;;;;;;5117455;27;20032;-74
2022/07/18 16:54:35;;;;;;;4.93;1.25;;;37.20;33.40;;;;;;5117905;27;20555;-76
2022/07/18 16:57:01;;;;;;;1.77;1.67;;;36.80;37.90;;;;;;5118018;27;20028;-74
2022/07/18 16:59:26;;;;;;;3.42;1.42;;;36.30;35.80;;;;;;5116954;27;20051;-74
2022/07/18 17:01:53;;;;;;;7.15;1.60;;;35.90;36.80;;;;;;5117067;27;20028;-73
2022/07/18 17:04:19;;;;;;;2.85;1.33;;;35.40;34.20;;;;;;5116612;27;20074;-74
2022/07/18 17:06:45;;;;;;;2.88;1.70;;;35.30;38.80;;;;;;5119468;27;20052;-74
2022/07/18 17:09:11;;;;;;;1.88;1.48;;;34.90;40.80;;;;;;5120440;27;20081;-74
2022/07/18 17:11:36;;;;;;;2.72;1.27;;;34.60;39.30;;;;;;5119188;28;20025;-75
2022/07/18 17:14:03;;;;;;;3.47;1.55;;;34.40;39.80;;;;;;5120874;27;20399;-76
2022/07/18 17:16:29;;;;;;;1.92;1.42;;;34.10;37.30;;;;;;5124932;27;20533;-78
2022/07/18 17:18:55;;;;;;;4.07;1.63;;;33.90;39.80;;;;;;5120509;28;20178;-76
2022/07/18 17:21:22;;;;;;;3.88;1.60;;;33.70;38.50;;;;;;5117580;28;20132;-79
2022/07/18 17:23:47;;;;;;;2.17;1.45;;;33.40;38.60;;;;;;5114975;28;20024;-73
2022/07/18 17:26:14;;;;;;;2.17;1.42;;;33.30;38.30;;;;;;5116407;27;20028;-73
2022/07/18 17:28:39;;;;;;;2.13;1.40;;;33.10;38.60;;;;;;5116500;28;20032;-73
2022/07/18 17:31:05;;;;;;;2.53;1.58;;;33.10;40.40;;;;;;5116704;27;20129;-74
2022/07/18 17:33:31;;;;;;;2.28;1.80;;;32.90;38.80;;;;;;5116105;27;20337;-74
2022/07/18 17:35:59;;;;;;;3.35;1.63;;;32.70;40.30;;;;;;5114159;28;20489;-74
2022/07/18 17:38:25;;;;;;;3.35;1.52;;;32.60;42.60;;;;;;5116116;27;20148;-74
2022/07/18 17:40:54;;;;;;;1.75;1.35;;;32.50;39.70;;;;;;5116025;28;20043;-74
2022/07/18 17:43:20;;;;;;;2.83;1.40;;;32.30;40.10;;;;;;5115070;28;20139;-74
2022/07/18 17:45:49;;;;;;;2.55;1.50;;;32.10;40.50;;;;;;5115924;27;20563;-74
2022/07/18 17:48:14;;;;;;;3.10;1.50;;;31.80;42.60;;;;;;5116114;28;20040;-74
2022/07/18 17:50:40;;;;;;;3.55;1.50;;;31.50;43.90;;;;;;5115973;28;20044;-74
2022/07/18 17:53:06;;;;;;;3.30;1.70;;;31.30;42.60;;;;;;5115943;27;20032;-74
2022/07/18 17:55:33;;;;;;;5.10;1.42;;;31.00;43.50;;;;;;5115358;27;20028;-73
2022/07/18 17:57:58;;;;;;;3.45;1.67;;;30.90;46.20;;;;;;5116216;27;20512;-73
2022/07/18 18:00:24;;;;;;;2.67;1.30;;;30.90;43.30;;;;;;5116152;28;20051;-73
2022/07/18 18:02:50;;;;;;;3.28;1.27;;;30.70;42.50;;;;;;5115370;28;20039;-73
2022/07/18 18:05:15;;;;;;;3.53;1.40;;;30.70;44.40;;;;;;5115711;27;20089;-74
2022/07/18 18:07:41;;;;;;;4.05;1.60;;;30.60;44.30;;;;;;5116126;27;20059;-79
2022/07/18 18:10:08;;;;;;;4.43;1.60;;;30.40;45.20;;;;;;5115849;27;20036;-77
2022/07/18 18:12:34;;;;;;;1.90;1.50;;;30.20;45.00;;;;;;5115888;28;20107;-74
2022/07/18 18:15:01;;;;;;;2.35;1.52;;;30.00;46.70;;;;;;5115295;27;20043;-73
2022/07/18 18:17:26;;;;;;;2.65;1.60;;;29.80;46.90;;;;;;5115502;27;20035;-74
2022/07/18 18:19:52;;;;;;;3.42;1.60;;;29.60;47.40;;;;;;5120804;27;20431;-75
2022/07/18 18:22:19;;;;;;;2.95;1.50;;;29.30;48.80;;;;;;5137925;27;20035;-75
2022/07/18 18:24:45;;;;;;;6.20;2.40;;;29.10;48.70;;;;;;5137304;27;20031;-74
2022/07/18 18:27:11;;;;;;;4.05;2.50;;;28.90;50.30;;;;;;5137423;27;20039;-74
2022/07/18 18:29:36;;;;;;;2.60;1.90;;;28.50;50.10;;;;;;5138717;27;20039;-74
2022/07/18 18:32:02;;;;;;;4.05;2.03;;;28.30;50.40;;;;;;5135481;27;20023;-74
2022/07/18 18:34:28;;;;;;;4.72;2.17;;;28.10;51.60;;;;;;5135621;27;20042;-74
2022/07/18 18:36:58;;;;;;;3.35;2.03;;;27.90;52.60;;;;;;5136001;27;20067;-74
2022/07/18 18:39:30;;;;;;;3.35;1.95;;;27.60;53.70;;;;;;5134165;27;20040;-74
2022/07/18 18:41:57;;;;;;;4.63;2.40;;;27.50;54.00;;;;;;5116921;27;20035;-74
2022/07/18 18:44:23;;;;;;;3.72;2.30;;;27.20;55.00;;;;;;5114810;27;20481;-74
2022/07/18 18:46:49;;;;;;;4.07;1.75;;;26.90;55.10;;;;;;5114801;27;20172;-74
2022/07/18 18:49:16;;;;;;;2.83;1.65;;;26.80;55.10;;;;;;5119888;27;20074;-74
2022/07/18 18:51:46;;;;;;;2.70;1.73;;;26.40;55.50;;;;;;5119389;27;20168;-74
2022/07/18 18:54:12;;;;;;;4.35;1.80;;;26.30;56.00;;;;;;5118274;27;20032;-74
2022/07/18 18:56:38;;;;;;;4.45;1.88;;;26.10;56.20;;;;;;5119001;27;20046;-74
2022/07/18 18:59:04;;;;;;;3.30;1.90;;;25.90;56.10;;;;;;5117860;27;20036;-74
2022/07/18 19:01:30;;;;;;;4.05;1.70;;;25.70;56.20;;;;;;5114449;27;20040;-73
2022/07/18 19:03:55;;;;;;;2.28;1.58;;;25.50;56.80;;;;;;5105374;22;20050;-82
2022/07/18 19:06:21;;;;;;;3.40;1.77;;;25.30;56.90;;;;;;5052687;28;20479;-79
2022/07/18 19:08:47;;;;;;;3.25;1.70;;;25.10;57.10;;;;;;5055101;28;20045;-78
2022/07/18 19:11:12;;;;;;;2.25;1.88;;;25.00;57.70;;;;;;5055133;28;20044;-80
2022/07/18 19:13:38;;;;;;;3.55;1.60;;;24.80;57.80;;;;;;5054868;28;20056;-80
2022/07/18 19:16:04;;;;;;;4.53;1.90;;;24.70;58.30;;;;;;5053759;28;20037;-81
2022/07/18 19:18:30;;;;;;;5.82;1.80;;;24.50;59.20;;;;;;5057653;28;20104;-81
2022/07/18 19:20:55;;;;;;;2.30;1.70;;;24.30;58.70;;;;;;5057164;28;20041;-80
2022/07/18 19:23:21;;;;;;;4.30;2.53;;;24.20;59.30;;;;;;5053757;28;20387;-79
2022/07/18 19:25:46;;;;;;;3.92;2.33;;;24.00;60.50;;;;;;5053733;28;20025;-80
2022/07/18 19:28:12;;;;;;;5.25;2.45;;;23.90;61.20;;;;;;5053318;28;20038;-80
2022/07/18 19:30:37;;;;;;;3.50;2.50;;;23.70;62.10;;;;;;5030906;28;20068;-79
2022/07/18 19:33:03;;;;;;;4.30;2.15;;;23.60;62.70;;;;;;5044364;28;20169;-79
2022/07/18 19:35:29;;;;;;;3.80;2.15;;;23.50;64.30;;;;;;5042830;28;20084;-79
2022/07/18 19:37:54;;;;;;;3.92;2.08;;;23.40;66.00;;;;;;5046151;28;20045;-79
2022/07/18 19:40:20;;;;;;;2.97;1.65;;;23.30;67.10;;;;;;5041977;28;20081;-79